sensor_id;sensor_type;location;lat;lon;timestamp;P1;durP1;ratioP1;P2;durP2;ratioP2
68082;SDS011;54870;50.336;3.506;2022-10-19T00:01:11;18.33;;;9.48;;
68082;SDS011;54870;50.336;3.506;2022-10-19T00:03:37;21.27;;;10.40;;
68082;SDS011;54870;50.336;3.506;2022-10-19T00:06:17;23.08;;;10.23;;
68082;SDS011;54870;50.336;3.506;2022-10-19T00:08:44;21.88;;;10.88;;
68082;SDS011;54870;50.336;3.506;2022-10-19T00:11:11;23.42;;;11.38;;
68082;SDS011;54870;50.336;3.506;2022-10-19T00:13:37;21.42;;;11.13;;
68082;SDS011;54870;50.336;3.506;2022-10-19T00:16:10;20.38;;;10.70;;
68082;SDS011;54870;50.336;3.506;2022-10-19T00:18:36;21.33;;;10.75;;
68082;SDS011;54870;50.336;3.506;2022-10-19T00:21:04;21.48;;;11.77;;
68082;SDS011;54870;50.336;3.506;2022-10-19T00:23:30;20.98;;;11.48;;
68082;SDS011;54870;50.336;3.506;2022-10-19T00:25:56;24.60;;;11.80;;
68082;SDS011;54870;50.336;3.506;2022-10-19T00:28:22;24.52;;;12.48;;
68082;SDS011;54870;50.336;3.506;2022-10-19T00:30:48;24.30;;;11.98;;
68082;SDS011;54870;50.336;3.506;2022-10-19T00:33:14;18.65;;;11.35;;
68082;SDS011;54870;50.336;3.506;2022-10-19T00:35:45;21.65;;;12.38;;
68082;SDS011;54870;50.336;3.506;2022-10-19T00:38:12;23.27;;;12.48;;
68082;SDS011;54870;50.336;3.506;2022-10-19T00:40:39;25.13;;;12.57;;
68082;SDS011;54870;50.336;3.506;2022-10-19T00:43:09;22.30;;;12.63;;
68082;SDS011;54870;50.336;3.506;2022-10-19T00:45:37;23.10;;;12.90;;
68082;SDS011;54870;50.336;3.506;2022-10-19T00:48:04;22.70;;;12.98;;
68082;SDS011;54870;50.336;3.506;2022-10-19T00:50:30;25.88;;;12.55;;
68082;SDS011;54870;50.336;3.506;2022-10-19T00:52:56;22.33;;;13.18;;
68082;SDS011;54870;50.336;3.506;2022-10-19T00:55:23;22.75;;;13.93;;
68082;SDS011;54870;50.336;3.506;2022-10-19T00:57:49;24.02;;;14.27;;
68082;SDS011;54870;50.336;3.506;2022-10-19T01:00:15;24.35;;;13.38;;
68082;SDS011;54870;50.336;3.506;2022-10-19T01:02:41;23.05;;;12.77;;
68082;SDS011;54870;50.336;3.506;2022-10-19T01:05:07;23.80;;;13.32;;
68082;SDS011;54870;50.336;3.506;2022-10-19T01:07:33;23.48;;;13.32;;
68082;SDS011;54870;50.336;3.506;2022-10-19T01:09:59;28.45;;;13.68;;
68082;SDS011;54870;50.336;3.506;2022-10-19T01:15:02;26.55;;;13.80;;
68082;SDS011;54870;50.336;3.506;2022-10-19T01:30:12;28.83;;;14.75;;
68082;SDS011;54870;50.336;3.506;2022-10-19T01:35:16;26.98;;;15.38;;
68082;SDS011;54870;50.336;3.506;2022-10-19T01:37:54;26.92;;;15.80;;
68082;SDS011;54870;50.336;3.506;2022-10-19T01:41:26;29.80;;;15.10;;
68082;SDS011;54870;50.336;3.506;2022-10-19T01:43:23;25.63;;;15.43;;
68082;SDS011;54870;50.336;3.506;2022-10-19T01:48:41;26.08;;;15.10;;
68082;SDS011;54870;50.336;3.506;2022-10-19T01:51:19;30.00;;;15.93;;
68082;SDS011;54870;50.336;3.506;2022-10-19T01:53:49;27.17;;;15.25;;
68082;SDS011;54870;50.336;3.506;2022-10-19T01:56:17;25.02;;;15.18;;
68082;SDS011;54870;50.336;3.506;2022-10-19T01:58:44;28.98;;;16.38;;
68082;SDS011;54870;50.336;3.506;2022-10-19T02:01:12;25.77;;;15.52;;
68082;SDS011;54870;50.336;3.506;2022-10-19T02:03:39;29.05;;;16.55;;
68082;SDS011;54870;50.336;3.506;2022-10-19T02:06:06;27.58;;;15.57;;
68082;SDS011;54870;50.336;3.506;2022-10-19T02:08:49;31.02;;;15.88;;
68082;SDS011;54870;50.336;3.506;2022-10-19T02:13:42;30.67;;;16.38;;
68082;SDS011;54870;50.336;3.506;2022-10-19T02:16:13;30.02;;;15.75;;
68082;SDS011;54870;50.336;3.506;2022-10-19T02:18:43;28.45;;;16.10;;
68082;SDS011;54870;50.336;3.506;2022-10-19T02:21:09;30.83;;;16.13;;
68082;SDS011;54870;50.336;3.506;2022-10-19T02:23:35;27.05;;;15.52;;
68082;SDS011;54870;50.336;3.506;2022-10-19T02:26:02;28.13;;;15.77;;
68082;SDS011;54870;50.336;3.506;2022-10-19T02:28:28;29.00;;;15.95;;
68082;SDS011;54870;50.336;3.506;2022-10-19T02:30:55;29.25;;;16.58;;
68082;SDS011;54870;50.336;3.506;2022-10-19T02:33:21;25.20;;;15.13;;
68082;SDS011;54870;50.336;3.506;2022-10-19T02:35:47;27.52;;;16.30;;
68082;SDS011;54870;50.336;3.506;2022-10-19T02:38:15;29.70;;;16.02;;
68082;SDS011;54870;50.336;3.506;2022-10-19T02:40:42;28.77;;;16.27;;
68082;SDS011;54870;50.336;3.506;2022-10-19T02:43:10;29.63;;;16.60;;
68082;SDS011;54870;50.336;3.506;2022-10-19T02:45:39;33.10;;;16.67;;
68082;SDS011;54870;50.336;3.506;2022-10-19T02:48:10;30.92;;;16.38;;
68082;SDS011;54870;50.336;3.506;2022-10-19T02:50:42;32.33;;;16.80;;
68082;SDS011;54870;50.336;3.506;2022-10-19T02:53:08;31.40;;;16.52;;
68082;SDS011;54870;50.336;3.506;2022-10-19T02:55:34;31.27;;;17.05;;
68082;SDS011;54870;50.336;3.506;2022-10-19T02:58:00;31.75;;;17.35;;
68082;SDS011;54870;50.336;3.506;2022-10-19T03:00:26;31.65;;;17.77;;
68082;SDS011;54870;50.336;3.506;2022-10-19T03:02:52;32.47;;;17.35;;
68082;SDS011;54870;50.336;3.506;2022-10-19T03:05:18;34.40;;;17.60;;
68082;SDS011;54870;50.336;3.506;2022-10-19T03:07:44;33.88;;;18.42;;
68082;SDS011;54870;50.336;3.506;2022-10-19T03:10:10;37.88;;;19.30;;
68082;SDS011;54870;50.336;3.506;2022-10-19T03:12:36;35.70;;;19.27;;
68082;SDS011;54870;50.336;3.506;2022-10-19T03:15:03;30.73;;;17.20;;
68082;SDS011;54870;50.336;3.506;2022-10-19T03:17:29;34.95;;;18.92;;
68082;SDS011;54870;50.336;3.506;2022-10-19T03:19:55;35.45;;;20.33;;
68082;SDS011;54870;50.336;3.506;2022-10-19T03:22:21;33.08;;;18.45;;
68082;SDS011;54870;50.336;3.506;2022-10-19T03:24:47;35.03;;;18.52;;
68082;SDS011;54870;50.336;3.506;2022-10-19T03:27:13;30.77;;;18.17;;
68082;SDS011;54870;50.336;3.506;2022-10-19T03:29:39;36.13;;;20.00;;
68082;SDS011;54870;50.336;3.506;2022-10-19T03:32:05;35.88;;;19.52;;
68082;SDS011;54870;50.336;3.506;2022-10-19T03:34:31;31.85;;;18.67;;
68082;SDS011;54870;50.336;3.506;2022-10-19T03:36:57;37.20;;;18.70;;
68082;SDS011;54870;50.336;3.506;2022-10-19T03:39:23;34.80;;;19.13;;
68082;SDS011;54870;50.336;3.506;2022-10-19T03:41:49;35.03;;;19.48;;
68082;SDS011;54870;50.336;3.506;2022-10-19T03:44:15;34.00;;;18.98;;
68082;SDS011;54870;50.336;3.506;2022-10-19T03:46:41;31.45;;;17.98;;
68082;SDS011;54870;50.336;3.506;2022-10-19T03:49:07;31.58;;;18.23;;
68082;SDS011;54870;50.336;3.506;2022-10-19T03:51:34;38.25;;;19.40;;
68082;SDS011;54870;50.336;3.506;2022-10-19T03:54:04;56.45;;;32.72;;
68082;SDS011;54870;50.336;3.506;2022-10-19T03:56:31;40.45;;;22.55;;
68082;SDS011;54870;50.336;3.506;2022-10-19T03:58:58;32.47;;;17.80;;
68082;SDS011;54870;50.336;3.506;2022-10-19T04:01:25;33.60;;;18.70;;
68082;SDS011;54870;50.336;3.506;2022-10-19T04:03:52;32.83;;;18.95;;
68082;SDS011;54870;50.336;3.506;2022-10-19T04:06:18;32.30;;;17.17;;
68082;SDS011;54870;50.336;3.506;2022-10-19T04:08:47;32.42;;;18.02;;
68082;SDS011;54870;50.336;3.506;2022-10-19T04:11:19;31.25;;;17.58;;
68082;SDS011;54870;50.336;3.506;2022-10-19T04:13:52;33.33;;;18.58;;
68082;SDS011;54870;50.336;3.506;2022-10-19T04:16:18;54.73;;;34.83;;
68082;SDS011;54870;50.336;3.506;2022-10-19T04:18:45;52.03;;;32.20;;
68082;SDS011;54870;50.336;3.506;2022-10-19T04:21:21;36.92;;;18.85;;
68082;SDS011;54870;50.336;3.506;2022-10-19T04:23:48;37.08;;;18.33;;
68082;SDS011;54870;50.336;3.506;2022-10-19T04:26:14;34.65;;;18.25;;
68082;SDS011;54870;50.336;3.506;2022-10-19T04:28:40;30.50;;;17.67;;
68082;SDS011;54870;50.336;3.506;2022-10-19T04:31:06;30.70;;;18.02;;
68082;SDS011;54870;50.336;3.506;2022-10-19T04:33:33;32.85;;;18.40;;
68082;SDS011;54870;50.336;3.506;2022-10-19T04:36:00;37.45;;;18.35;;
68082;SDS011;54870;50.336;3.506;2022-10-19T04:38:27;33.78;;;18.00;;
68082;SDS011;54870;50.336;3.506;2022-10-19T04:40:53;38.15;;;19.02;;
68082;SDS011;54870;50.336;3.506;2022-10-19T04:43:20;33.30;;;18.23;;
68082;SDS011;54870;50.336;3.506;2022-10-19T04:45:46;32.92;;;18.88;;
68082;SDS011;54870;50.336;3.506;2022-10-19T04:48:12;34.42;;;17.58;;
68082;SDS011;54870;50.336;3.506;2022-10-19T04:50:38;35.60;;;18.63;;
68082;SDS011;54870;50.336;3.506;2022-10-19T04:53:04;36.33;;;19.15;;
68082;SDS011;54870;50.336;3.506;2022-10-19T04:55:30;35.22;;;18.85;;
68082;SDS011;54870;50.336;3.506;2022-10-19T04:57:56;37.97;;;19.83;;
68082;SDS011;54870;50.336;3.506;2022-10-19T05:00:22;38.05;;;18.98;;
68082;SDS011;54870;50.336;3.506;2022-10-19T05:02:48;37.05;;;18.77;;
68082;SDS011;54870;50.336;3.506;2022-10-19T05:05:14;36.85;;;18.60;;
68082;SDS011;54870;50.336;3.506;2022-10-19T05:07:40;28.90;;;17.15;;
68082;SDS011;54870;50.336;3.506;2022-10-19T05:10:07;33.50;;;18.73;;
68082;SDS011;54870;50.336;3.506;2022-10-19T05:12:33;37.65;;;19.92;;
68082;SDS011;54870;50.336;3.506;2022-10-19T05:14:59;35.20;;;18.98;;
68082;SDS011;54870;50.336;3.506;2022-10-19T05:17:28;39.95;;;20.38;;
68082;SDS011;54870;50.336;3.506;2022-10-19T05:19:54;36.45;;;19.30;;
68082;SDS011;54870;50.336;3.506;2022-10-19T05:22:20;37.92;;;19.17;;
68082;SDS011;54870;50.336;3.506;2022-10-19T05:24:46;35.92;;;18.83;;
68082;SDS011;54870;50.336;3.506;2022-10-19T05:27:12;33.90;;;20.13;;
68082;SDS011;54870;50.336;3.506;2022-10-19T05:29:38;37.70;;;19.60;;
68082;SDS011;54870;50.336;3.506;2022-10-19T05:32:04;37.22;;;19.55;;
68082;SDS011;54870;50.336;3.506;2022-10-19T05:34:30;34.17;;;20.02;;
68082;SDS011;54870;50.336;3.506;2022-10-19T05:36:56;39.22;;;20.45;;
68082;SDS011;54870;50.336;3.506;2022-10-19T05:39:22;35.55;;;20.38;;
68082;SDS011;54870;50.336;3.506;2022-10-19T05:41:49;37.25;;;20.65;;
68082;SDS011;54870;50.336;3.506;2022-10-19T05:44:16;36.25;;;19.55;;
68082;SDS011;54870;50.336;3.506;2022-10-19T05:46:42;40.72;;;20.60;;
68082;SDS011;54870;50.336;3.506;2022-10-19T05:49:09;37.15;;;20.27;;
68082;SDS011;54870;50.336;3.506;2022-10-19T05:51:35;36.45;;;19.85;;
68082;SDS011;54870;50.336;3.506;2022-10-19T05:54:01;40.13;;;20.45;;
68082;SDS011;54870;50.336;3.506;2022-10-19T05:56:28;40.35;;;20.48;;
68082;SDS011;54870;50.336;3.506;2022-10-19T05:58:55;37.13;;;19.33;;
68082;SDS011;54870;50.336;3.506;2022-10-19T06:01:21;33.00;;;19.73;;
68082;SDS011;54870;50.336;3.506;2022-10-19T06:03:50;36.72;;;20.98;;
68082;SDS011;54870;50.336;3.506;2022-10-19T06:06:16;37.03;;;20.42;;
68082;SDS011;54870;50.336;3.506;2022-10-19T06:08:42;38.60;;;21.08;;
68082;SDS011;54870;50.336;3.506;2022-10-19T06:11:13;69.72;;;44.53;;
68082;SDS011;54870;50.336;3.506;2022-10-19T06:13:40;45.78;;;28.75;;
68082;SDS011;54870;50.336;3.506;2022-10-19T06:16:07;41.55;;;22.15;;
68082;SDS011;54870;50.336;3.506;2022-10-19T06:18:33;38.42;;;22.00;;
68082;SDS011;54870;50.336;3.506;2022-10-19T06:21:03;39.88;;;21.50;;
68082;SDS011;54870;50.336;3.506;2022-10-19T06:23:29;40.55;;;20.75;;
68082;SDS011;54870;50.336;3.506;2022-10-19T06:25:56;35.00;;;21.25;;
68082;SDS011;54870;50.336;3.506;2022-10-19T06:28:22;40.83;;;22.30;;
68082;SDS011;54870;50.336;3.506;2022-10-19T06:30:48;39.85;;;22.05;;
68082;SDS011;54870;50.336;3.506;2022-10-19T06:33:14;38.28;;;22.35;;
68082;SDS011;54870;50.336;3.506;2022-10-19T06:35:40;42.22;;;22.17;;
68082;SDS011;54870;50.336;3.506;2022-10-19T06:38:09;39.95;;;23.10;;
68082;SDS011;54870;50.336;3.506;2022-10-19T06:40:37;35.92;;;22.38;;
68082;SDS011;54870;50.336;3.506;2022-10-19T06:43:03;41.53;;;21.80;;
68082;SDS011;54870;50.336;3.506;2022-10-19T06:45:29;38.67;;;21.40;;
68082;SDS011;54870;50.336;3.506;2022-10-19T06:47:55;35.88;;;21.58;;
68082;SDS011;54870;50.336;3.506;2022-10-19T06:50:21;37.83;;;20.60;;
68082;SDS011;54870;50.336;3.506;2022-10-19T06:52:47;35.25;;;21.27;;
68082;SDS011;54870;50.336;3.506;2022-10-19T06:55:13;38.67;;;21.33;;
68082;SDS011;54870;50.336;3.506;2022-10-19T06:57:41;36.15;;;20.85;;
68082;SDS011;54870;50.336;3.506;2022-10-19T07:00:07;38.10;;;21.73;;
68082;SDS011;54870;50.336;3.506;2022-10-19T07:02:33;35.67;;;21.08;;
68082;SDS011;54870;50.336;3.506;2022-10-19T07:04:59;32.08;;;19.67;;
68082;SDS011;54870;50.336;3.506;2022-10-19T07:07:25;34.22;;;20.52;;
68082;SDS011;54870;50.336;3.506;2022-10-19T07:09:51;34.50;;;20.42;;
68082;SDS011;54870;50.336;3.506;2022-10-19T07:12:17;35.90;;;20.30;;
68082;SDS011;54870;50.336;3.506;2022-10-19T07:14:43;38.53;;;20.73;;
68082;SDS011;54870;50.336;3.506;2022-10-19T07:17:10;38.75;;;21.38;;
68082;SDS011;54870;50.336;3.506;2022-10-19T07:19:36;37.00;;;21.35;;
68082;SDS011;54870;50.336;3.506;2022-10-19T07:22:02;33.55;;;19.98;;
68082;SDS011;54870;50.336;3.506;2022-10-19T07:24:28;38.50;;;21.38;;
68082;SDS011;54870;50.336;3.506;2022-10-19T07:26:54;37.72;;;21.25;;
68082;SDS011;54870;50.336;3.506;2022-10-19T07:29:21;35.33;;;21.33;;
68082;SDS011;54870;50.336;3.506;2022-10-19T07:31:47;35.17;;;21.17;;
68082;SDS011;54870;50.336;3.506;2022-10-19T07:34:13;40.13;;;23.13;;
68082;SDS011;54870;50.336;3.506;2022-10-19T07:36:39;40.45;;;23.05;;
68082;SDS011;54870;50.336;3.506;2022-10-19T07:39:09;37.80;;;22.52;;
68082;SDS011;54870;50.336;3.506;2022-10-19T07:41:35;37.67;;;22.35;;
68082;SDS011;54870;50.336;3.506;2022-10-19T07:44:01;38.17;;;21.98;;
68082;SDS011;54870;50.336;3.506;2022-10-19T07:46:28;37.15;;;22.90;;
68082;SDS011;54870;50.336;3.506;2022-10-19T07:48:58;40.92;;;23.08;;
68082;SDS011;54870;50.336;3.506;2022-10-19T07:51:24;38.72;;;22.67;;
68082;SDS011;54870;50.336;3.506;2022-10-19T07:53:50;36.60;;;22.58;;
68082;SDS011;54870;50.336;3.506;2022-10-19T07:56:23;36.15;;;23.05;;
68082;SDS011;54870;50.336;3.506;2022-10-19T07:58:50;38.53;;;23.00;;
68082;SDS011;54870;50.336;3.506;2022-10-19T08:01:20;37.25;;;23.25;;
68082;SDS011;54870;50.336;3.506;2022-10-19T08:03:47;43.53;;;24.23;;
68082;SDS011;54870;50.336;3.506;2022-10-19T08:06:14;39.15;;;22.67;;
68082;SDS011;54870;50.336;3.506;2022-10-19T08:08:41;39.88;;;23.92;;
68082;SDS011;54870;50.336;3.506;2022-10-19T08:11:09;34.92;;;23.10;;
68082;SDS011;54870;50.336;3.506;2022-10-19T08:13:35;40.80;;;23.17;;
68082;SDS011;54870;50.336;3.506;2022-10-19T08:16:01;40.63;;;23.10;;
68082;SDS011;54870;50.336;3.506;2022-10-19T08:18:28;37.55;;;22.58;;
68082;SDS011;54870;50.336;3.506;2022-10-19T08:20:54;36.75;;;22.63;;
68082;SDS011;54870;50.336;3.506;2022-10-19T08:23:20;35.63;;;22.33;;
68082;SDS011;54870;50.336;3.506;2022-10-19T08:25:47;37.42;;;21.83;;
68082;SDS011;54870;50.336;3.506;2022-10-19T08:28:13;35.63;;;21.88;;
68082;SDS011;54870;50.336;3.506;2022-10-19T08:30:39;35.25;;;22.02;;
68082;SDS011;54870;50.336;3.506;2022-10-19T08:33:05;34.38;;;21.10;;
68082;SDS011;54870;50.336;3.506;2022-10-19T08:35:32;32.58;;;20.63;;
68082;SDS011;54870;50.336;3.506;2022-10-19T08:37:59;33.63;;;21.17;;
68082;SDS011;54870;50.336;3.506;2022-10-19T08:40:25;33.55;;;21.70;;
68082;SDS011;54870;50.336;3.506;2022-10-19T08:48:19;33.00;;;21.20;;
68082;SDS011;54870;50.336;3.506;2022-10-19T08:50:47;35.25;;;21.77;;
68082;SDS011;54870;50.336;3.506;2022-10-19T08:53:58;35.17;;;21.33;;
68082;SDS011;54870;50.336;3.506;2022-10-19T08:58:31;32.65;;;20.73;;
68082;SDS011;54870;50.336;3.506;2022-10-19T09:01:01;35.35;;;21.77;;
68082;SDS011;54870;50.336;3.506;2022-10-19T09:08:37;33.88;;;20.25;;
68082;SDS011;54870;50.336;3.506;2022-10-19T09:11:03;39.95;;;21.70;;
68082;SDS011;54870;50.336;3.506;2022-10-19T09:16:00;35.65;;;22.38;;
68082;SDS011;54870;50.336;3.506;2022-10-19T09:18:29;36.17;;;22.08;;
68082;SDS011;54870;50.336;3.506;2022-10-19T09:21:15;37.63;;;21.88;;
68082;SDS011;54870;50.336;3.506;2022-10-19T09:26:13;39.10;;;23.40;;
68082;SDS011;54870;50.336;3.506;2022-10-19T09:28:48;38.28;;;22.92;;
68082;SDS011;54870;50.336;3.506;2022-10-19T09:31:24;37.65;;;22.35;;
68082;SDS011;54870;50.336;3.506;2022-10-19T09:33:52;34.63;;;22.58;;
68082;SDS011;54870;50.336;3.506;2022-10-19T09:36:21;35.00;;;22.23;;
68082;SDS011;54870;50.336;3.506;2022-10-19T09:38:47;36.88;;;21.48;;
68082;SDS011;54870;50.336;3.506;2022-10-19T09:41:16;38.33;;;22.10;;
68082;SDS011;54870;50.336;3.506;2022-10-19T09:43:48;36.97;;;22.38;;
68082;SDS011;54870;50.336;3.506;2022-10-19T09:46:21;37.38;;;22.38;;
68082;SDS011;54870;50.336;3.506;2022-10-19T09:48:50;35.42;;;22.02;;
68082;SDS011;54870;50.336;3.506;2022-10-19T09:51:17;37.63;;;22.13;;
68082;SDS011;54870;50.336;3.506;2022-10-19T09:53:44;36.05;;;22.52;;
68082;SDS011;54870;50.336;3.506;2022-10-19T09:56:16;36.50;;;21.73;;
68082;SDS011;54870;50.336;3.506;2022-10-19T09:58:46;34.95;;;21.90;;
68082;SDS011;54870;50.336;3.506;2022-10-19T10:01:27;32.92;;;20.30;;
68082;SDS011;54870;50.336;3.506;2022-10-19T10:04:03;32.30;;;20.45;;
68082;SDS011;54870;50.336;3.506;2022-10-19T10:06:29;34.30;;;21.15;;
68082;SDS011;54870;50.336;3.506;2022-10-19T10:08:56;35.50;;;20.52;;
68082;SDS011;54870;50.336;3.506;2022-10-19T10:11:24;33.85;;;20.70;;
68082;SDS011;54870;50.336;3.506;2022-10-19T10:13:52;34.42;;;20.23;;
68082;SDS011;54870;50.336;3.506;2022-10-19T10:16:19;35.13;;;20.30;;
68082;SDS011;54870;50.336;3.506;2022-10-19T10:21:25;32.70;;;19.23;;
68082;SDS011;54870;50.336;3.506;2022-10-19T10:24:25;31.98;;;19.30;;
68082;SDS011;54870;50.336;3.506;2022-10-19T10:26:45;32.63;;;19.65;;
68082;SDS011;54870;50.336;3.506;2022-10-19T10:29:33;32.58;;;19.85;;
68082;SDS011;54870;50.336;3.506;2022-10-19T10:31:59;32.30;;;20.10;;
68082;SDS011;54870;50.336;3.506;2022-10-19T10:34:35;30.45;;;18.60;;
68082;SDS011;54870;50.336;3.506;2022-10-19T10:37:02;33.85;;;19.63;;
68082;SDS011;54870;50.336;3.506;2022-10-19T10:39:29;31.08;;;18.17;;
68082;SDS011;54870;50.336;3.506;2022-10-19T10:41:56;32.13;;;18.85;;
68082;SDS011;54870;50.336;3.506;2022-10-19T10:44:25;30.42;;;18.60;;
68082;SDS011;54870;50.336;3.506;2022-10-19T10:46:56;30.23;;;18.80;;
68082;SDS011;54870;50.336;3.506;2022-10-19T10:49:27;31.60;;;18.77;;
68082;SDS011;54870;50.336;3.506;2022-10-19T10:51:56;29.52;;;18.10;;
68082;SDS011;54870;50.336;3.506;2022-10-19T10:54:24;32.08;;;19.08;;
68082;SDS011;54870;50.336;3.506;2022-10-19T10:57:04;31.33;;;19.27;;
68082;SDS011;54870;50.336;3.506;2022-10-19T10:59:40;27.95;;;17.83;;
68082;SDS011;54870;50.336;3.506;2022-10-19T11:04:55;28.70;;;17.92;;
68082;SDS011;54870;50.336;3.506;2022-10-19T11:07:24;27.92;;;17.70;;
68082;SDS011;54870;50.336;3.506;2022-10-19T11:12:17;29.55;;;18.75;;
68082;SDS011;54870;50.336;3.506;2022-10-19T11:14:48;29.40;;;18.42;;
68082;SDS011;54870;50.336;3.506;2022-10-19T11:17:17;29.63;;;18.88;;
68082;SDS011;54870;50.336;3.506;2022-10-19T11:19:44;31.00;;;19.02;;
68082;SDS011;54870;50.336;3.506;2022-10-19T11:22:31;28.63;;;17.20;;
68082;SDS011;54870;50.336;3.506;2022-10-19T11:30:26;28.75;;;17.02;;
68082;SDS011;54870;50.336;3.506;2022-10-19T11:33:05;25.58;;;16.42;;
68082;SDS011;54870;50.336;3.506;2022-10-19T11:35:44;27.58;;;16.23;;
68082;SDS011;54870;50.336;3.506;2022-10-19T11:41:05;28.23;;;16.05;;
68082;SDS011;54870;50.336;3.506;2022-10-19T11:46:06;23.38;;;14.32;;
68082;SDS011;54870;50.336;3.506;2022-10-19T11:51:07;32.78;;;15.48;;
68082;SDS011;54870;50.336;3.506;2022-10-19T12:01:29;41.30;;;28.98;;
68082;SDS011;54870;50.336;3.506;2022-10-19T12:06:31;21.48;;;12.95;;
68082;SDS011;54870;50.336;3.506;2022-10-19T12:13:56;22.45;;;12.32;;
68082;SDS011;54870;50.336;3.506;2022-10-19T12:16:27;22.20;;;13.65;;
68082;SDS011;54870;50.336;3.506;2022-10-19T12:18:56;18.92;;;11.75;;
68082;SDS011;54870;50.336;3.506;2022-10-19T12:23:50;19.63;;;11.63;;
68082;SDS011;54870;50.336;3.506;2022-10-19T12:26:18;21.48;;;12.18;;
68082;SDS011;54870;50.336;3.506;2022-10-19T12:29:01;22.05;;;11.15;;
68082;SDS011;54870;50.336;3.506;2022-10-19T12:31:28;19.65;;;11.57;;
68082;SDS011;54870;50.336;3.506;2022-10-19T12:36:47;21.30;;;11.30;;
68082;SDS011;54870;50.336;3.506;2022-10-19T12:39:17;19.95;;;11.30;;
68082;SDS011;54870;50.336;3.506;2022-10-19T12:47:36;16.80;;;10.30;;
68082;SDS011;54870;50.336;3.506;2022-10-19T12:50:02;16.83;;;9.38;;
68082;SDS011;54870;50.336;3.506;2022-10-19T12:57:45;11.52;;;5.88;;
68082;SDS011;54870;50.336;3.506;2022-10-19T13:00:22;8.77;;;4.72;;
68082;SDS011;54870;50.336;3.506;2022-10-19T13:03:21;10.18;;;5.10;;
68082;SDS011;54870;50.336;3.506;2022-10-19T13:05:40;9.13;;;4.82;;
68082;SDS011;54870;50.336;3.506;2022-10-19T13:08:07;9.68;;;4.72;;
68082;SDS011;54870;50.336;3.506;2022-10-19T13:10:33;7.95;;;4.53;;
68082;SDS011;54870;50.336;3.506;2022-10-19T13:12:59;7.53;;;3.92;;
68082;SDS011;54870;50.336;3.506;2022-10-19T13:18:03;8.30;;;4.30;;
68082;SDS011;54870;50.336;3.506;2022-10-19T13:25:28;8.57;;;4.35;;
68082;SDS011;54870;50.336;3.506;2022-10-19T13:28:47;8.85;;;4.40;;
68082;SDS011;54870;50.336;3.506;2022-10-19T13:43:23;7.82;;;4.18;;
68082;SDS011;54870;50.336;3.506;2022-10-19T13:46:07;6.70;;;3.97;;
68082;SDS011;54870;50.336;3.506;2022-10-19T13:48:39;6.88;;;4.70;;
68082;SDS011;54870;50.336;3.506;2022-10-19T13:53:40;9.18;;;4.13;;
68082;SDS011;54870;50.336;3.506;2022-10-19T13:56:23;7.65;;;4.00;;
68082;SDS011;54870;50.336;3.506;2022-10-19T14:04:05;7.10;;;4.00;;
68082;SDS011;54870;50.336;3.506;2022-10-19T14:09:13;9.25;;;4.05;;
68082;SDS011;54870;50.336;3.506;2022-10-19T14:11:40;15.98;;;10.07;;
68082;SDS011;54870;50.336;3.506;2022-10-19T14:16:34;9.88;;;5.47;;
68082;SDS011;54870;50.336;3.506;2022-10-19T14:19:00;8.07;;;4.15;;
68082;SDS011;54870;50.336;3.506;2022-10-19T14:21:30;5.50;;;3.55;;
68082;SDS011;54870;50.336;3.506;2022-10-19T14:23:56;11.23;;;4.07;;
68082;SDS011;54870;50.336;3.506;2022-10-19T14:26:23;9.43;;;4.05;;
68082;SDS011;54870;50.336;3.506;2022-10-19T14:28:50;8.60;;;3.70;;
68082;SDS011;54870;50.336;3.506;2022-10-19T14:31:19;7.15;;;3.90;;
68082;SDS011;54870;50.336;3.506;2022-10-19T14:33:46;7.38;;;3.80;;
68082;SDS011;54870;50.336;3.506;2022-10-19T14:36:19;7.78;;;3.58;;
68082;SDS011;54870;50.336;3.506;2022-10-19T14:38:45;7.13;;;3.70;;
68082;SDS011;54870;50.336;3.506;2022-10-19T14:43:51;7.53;;;3.70;;
68082;SDS011;54870;50.336;3.506;2022-10-19T14:46:17;6.68;;;3.67;;
68082;SDS011;54870;50.336;3.506;2022-10-19T14:48:44;9.73;;;3.70;;
68082;SDS011;54870;50.336;3.506;2022-10-19T14:51:21;7.65;;;3.85;;
68082;SDS011;54870;50.336;3.506;2022-10-19T14:53:51;7.78;;;4.00;;
68082;SDS011;54870;50.336;3.506;2022-10-19T14:56:20;7.00;;;3.92;;
68082;SDS011;54870;50.336;3.506;2022-10-19T14:58:58;6.82;;;4.00;;
68082;SDS011;54870;50.336;3.506;2022-10-19T15:01:25;7.43;;;3.90;;
68082;SDS011;54870;50.336;3.506;2022-10-19T15:03:51;7.03;;;3.90;;
68082;SDS011;54870;50.336;3.506;2022-10-19T15:06:19;9.20;;;4.18;;
68082;SDS011;54870;50.336;3.506;2022-10-19T15:08:48;12.57;;;3.78;;
68082;SDS011;54870;50.336;3.506;2022-10-19T15:11:58;7.13;;;3.53;;
68082;SDS011;54870;50.336;3.506;2022-10-19T15:14:06;6.75;;;3.78;;
68082;SDS011;54870;50.336;3.506;2022-10-19T15:19:11;7.13;;;3.60;;
68082;SDS011;54870;50.336;3.506;2022-10-19T15:21:39;9.85;;;3.85;;
68082;SDS011;54870;50.336;3.506;2022-10-19T15:24:06;9.68;;;4.35;;
68082;SDS011;54870;50.336;3.506;2022-10-19T15:26:32;11.98;;;5.78;;
68082;SDS011;54870;50.336;3.506;2022-10-19T15:29:09;11.95;;;6.70;;
68082;SDS011;54870;50.336;3.506;2022-10-19T15:31:36;11.55;;;6.65;;
68082;SDS011;54870;50.336;3.506;2022-10-19T15:34:02;8.82;;;4.85;;
68082;SDS011;54870;50.336;3.506;2022-10-19T15:36:29;7.30;;;4.30;;
68082;SDS011;54870;50.336;3.506;2022-10-19T15:41:26;9.50;;;4.72;;
68082;SDS011;54870;50.336;3.506;2022-10-19T15:43:56;10.70;;;4.75;;
68082;SDS011;54870;50.336;3.506;2022-10-19T15:46:25;9.27;;;4.60;;
68082;SDS011;54870;50.336;3.506;2022-10-19T15:48:54;7.50;;;4.95;;
68082;SDS011;54870;50.336;3.506;2022-10-19T15:53:58;10.95;;;5.35;;
68082;SDS011;54870;50.336;3.506;2022-10-19T15:56:25;9.10;;;4.95;;
68082;SDS011;54870;50.336;3.506;2022-10-19T15:58:52;8.32;;;4.50;;
68082;SDS011;54870;50.336;3.506;2022-10-19T16:01:22;9.20;;;4.43;;
68082;SDS011;54870;50.336;3.506;2022-10-19T16:03:50;7.20;;;4.03;;
68082;SDS011;54870;50.336;3.506;2022-10-19T16:06:16;8.18;;;4.35;;
68082;SDS011;54870;50.336;3.506;2022-10-19T16:08:43;7.75;;;4.57;;
68082;SDS011;54870;50.336;3.506;2022-10-19T16:11:15;6.63;;;4.40;;
68082;SDS011;54870;50.336;3.506;2022-10-19T16:13:41;8.95;;;4.50;;
68082;SDS011;54870;50.336;3.506;2022-10-19T16:16:08;6.63;;;4.53;;
68082;SDS011;54870;50.336;3.506;2022-10-19T16:18:35;8.90;;;4.55;;
68082;SDS011;54870;50.336;3.506;2022-10-19T16:21:01;7.80;;;4.60;;
68082;SDS011;54870;50.336;3.506;2022-10-19T16:23:27;7.05;;;4.53;;
68082;SDS011;54870;50.336;3.506;2022-10-19T16:25:54;10.10;;;4.20;;
68082;SDS011;54870;50.336;3.506;2022-10-19T16:28:20;8.80;;;4.57;;
68082;SDS011;54870;50.336;3.506;2022-10-19T16:30:50;10.05;;;4.35;;
68082;SDS011;54870;50.336;3.506;2022-10-19T16:33:16;8.52;;;4.63;;
68082;SDS011;54870;50.336;3.506;2022-10-19T16:35:42;11.00;;;4.13;;
68082;SDS011;54870;50.336;3.506;2022-10-19T16:38:08;8.65;;;4.18;;
68082;SDS011;54870;50.336;3.506;2022-10-19T16:40:34;6.93;;;4.30;;
68082;SDS011;54870;50.336;3.506;2022-10-19T16:43:00;7.70;;;4.38;;
68082;SDS011;54870;50.336;3.506;2022-10-19T16:45:26;7.05;;;3.95;;
68082;SDS011;54870;50.336;3.506;2022-10-19T16:47:52;7.97;;;3.80;;
68082;SDS011;54870;50.336;3.506;2022-10-19T16:50:18;5.93;;;4.18;;